Wetterdaten: Woche 11.04.16 - 17.04.16 (KW15)
Datum Zeit Temperatur Luftfeuchte Luftdruck Niederschlag Windrichtung Sonnenschein Solar Wind
11.04.2016 00:00 6,1 C 86 % 1009,1 hPa 0,0 l/m O-NO 0,00 h 0 W/m 2,5 km/h (1 Bft)
11.04.2016 01:00 5,5 C 88 % 1009,5 hPa 0,0 l/m O-NO 0,00 h 0 W/m 3,1 km/h (1 Bft)
11.04.2016 02:00 4,8 C 90 % 1009,5 hPa 0,0 l/m O-NO 0,00 h 0 W/m 1,7 km/h (1 Bft)
11.04.2016 03:00 4,2 C 92 % 1009,7 hPa 0,0 l/m N 0,00 h 0 W/m 0,9 km/h (0 Bft)
11.04.2016 04:00 3,7 C 93 % 1009,8 hPa 0,0 l/m N 0,00 h 0 W/m 0,8 km/h (0 Bft)
11.04.2016 05:00 3,0 C 94 % 1009,9 hPa 0,0 l/m N 0,00 h 0 W/m 0,0 km/h (0 Bft)
11.04.2016 06:00 2,5 C 95 % 1010,0 hPa 0,0 l/m O-NO 0,08 h 8 W/m 3,1 km/h (1 Bft)
11.04.2016 07:00 2,7 C 96 % 1010,2 hPa 0,0 l/m O-NO 0,00 h 46 W/m 3,6 km/h (1 Bft)
11.04.2016 08:00 3,8 C 95 % 1010,3 hPa 0,0 l/m NO 0,17 h 144 W/m 8,5 km/h (2 Bft)
11.04.2016 09:00 5,5 C 91 % 1010,5 hPa 0,0 l/m NO 0,67 h 307 W/m 10,2 km/h (2 Bft)
11.04.2016 10:00 7,3 C 86 % 1010,6 hPa 0,0 l/m O-NO 1,00 h 530 W/m 8,3 km/h (2 Bft)
11.04.2016 11:00 9,7 C 80 % 1010,2 hPa 0,0 l/m O 1,00 h 672 W/m 7,8 km/h (2 Bft)
11.04.2016 12:00 11,9 C 74 % 1009,8 hPa 0,0 l/m O 1,00 h 737 W/m 9,8 km/h (2 Bft)
11.04.2016 13:00 13,9 C 68 % 1009,1 hPa 0,0 l/m O 1,00 h 793 W/m 10,7 km/h (2 Bft)
11.04.2016 14:00 15,6 C 60 % 1008,7 hPa 0,0 l/m O-NO 1,00 h 771 W/m 9,8 km/h (2 Bft)
11.04.2016 15:00 16,6 C 57 % 1008,0 hPa 0,0 l/m O-NO 1,00 h 689 W/m 10,1 km/h (2 Bft)
11.04.2016 16:00 17,5 C 51 % 1007,5 hPa 0,0 l/m S-SO 1,00 h 568 W/m 6,0 km/h (2 Bft)
11.04.2016 17:00 17,7 C 48 % 1007,5 hPa 0,0 l/m O-NO 1,00 h 420 W/m 7,0 km/h (2 Bft)
11.04.2016 18:00 17,5 C 51 % 1007,5 hPa 0,0 l/m NO 1,00 h 238 W/m 9,3 km/h (2 Bft)
11.04.2016 19:00 15,8 C 57 % 1007,9 hPa 0,0 l/m NO 0,08 h 30 W/m 8,4 km/h (2 Bft)
11.04.2016 20:00 13,1 C 69 % 1008,1 hPa 0,0 l/m NO 0,00 h 5 W/m 3,7 km/h (1 Bft)
11.04.2016 21:00 11,9 C 75 % 1008,8 hPa 0,0 l/m N 0,00 h 0 W/m 2,7 km/h (1 Bft)
11.04.2016 22:00 11,7 C 76 % 1008,9 hPa 0,0 l/m NO 0,00 h 0 W/m 3,1 km/h (1 Bft)
11.04.2016 23:00 10,5 C 82 % 1008,8 hPa 0,0 l/m N 0,00 h 0 W/m 1,2 km/h (1 Bft)
12.04.2016 00:00 9,9 C 83 % 1009,0 hPa 0,0 l/m NO 0,00 h 0 W/m 5,2 km/h (1 Bft)
12.04.2016 01:00 9,0 C 85 % 1009,0 hPa 0,0 l/m NO 0,00 h 0 W/m 2,0 km/h (1 Bft)
12.04.2016 02:00 8,0 C 89 % 1008,6 hPa 0,0 l/m N-NO 0,00 h 0 W/m 2,8 km/h (1 Bft)
12.04.2016 03:00 8,1 C 88 % 1008,5 hPa 0,0 l/m N-NO 0,00 h 0 W/m 6,1 km/h (2 Bft)
12.04.2016 04:00 8,1 C 87 % 1008,7 hPa 0,0 l/m N-NO 0,00 h 0 W/m 1,9 km/h (1 Bft)
12.04.2016 05:00 8,3 C 87 % 1008,7 hPa 0,0 l/m W-NW 0,00 h 0 W/m 1,7 km/h (1 Bft)
12.04.2016 06:00 8,4 C 86 % 1010,0 hPa 0,0 l/m W-NW 0,00 h 0 W/m 19,3 km/h (3 Bft)
12.04.2016 07:00 8,2 C 89 % 1010,7 hPa 0,0 l/m W-NW 0,00 h 9 W/m 10,9 km/h (2 Bft)
12.04.2016 08:00 8,0 C 94 % 1011,4 hPa 2,4 l/m W 0,00 h 20 W/m 3,5 km/h (1 Bft)
12.04.2016 09:00 8,2 C 96 % 1011,3 hPa 0,0 l/m S-SW 0,00 h 61 W/m 5,8 km/h (2 Bft)
12.04.2016 10:00 8,8 C 97 % 1011,1 hPa 0,0 l/m S-SW 0,00 h 134 W/m 10,6 km/h (2 Bft)
12.04.2016 11:00 9,9 C 92 % 1011,0 hPa 0,0 l/m SW 0,00 h 161 W/m 10,6 km/h (2 Bft)
12.04.2016 12:00 12,5 C 82 % 1010,6 hPa 0,0 l/m S 0,92 h 746 W/m 14,0 km/h (3 Bft)
12.04.2016 13:00 14,9 C 69 % 1010,1 hPa 0,0 l/m S-SW 1,00 h 805 W/m 12,1 km/h (2 Bft)
12.04.2016 14:00 15,5 C 57 % 1009,4 hPa 0,0 l/m W-SW 0,58 h 547 W/m 7,2 km/h (2 Bft)
12.04.2016 15:00 16,8 C 53 % 1008,7 hPa 0,0 l/m W 1,00 h 707 W/m 8,7 km/h (2 Bft)
12.04.2016 16:00 17,8 C 48 % 1008,1 hPa 0,0 l/m S-SW 1,00 h 603 W/m 11,3 km/h (2 Bft)
12.04.2016 17:00 18,2 C 44 % 1007,4 hPa 0,0 l/m SO 1,00 h 458 W/m 8,7 km/h (2 Bft)
12.04.2016 18:00 17,4 C 44 % 1006,8 hPa 0,0 l/m W 0,92 h 225 W/m 7,0 km/h (2 Bft)
12.04.2016 19:00 16,3 C 51 % 1006,3 hPa 0,0 l/m W 0,08 h 33 W/m 6,7 km/h (2 Bft)
12.04.2016 20:00 13,5 C 69 % 1006,5 hPa 0,0 l/m N-NO 0,00 h 5 W/m 7,7 km/h (2 Bft)
12.04.2016 21:00 11,9 C 74 % 1006,6 hPa 0,0 l/m N-NO 0,00 h 0 W/m 2,3 km/h (1 Bft)
12.04.2016 22:00 11,3 C 75 % 1006,9 hPa 0,0 l/m N-NO 0,00 h 0 W/m 11,5 km/h (2 Bft)
12.04.2016 23:00 10,1 C 88 % 1007,9 hPa 0,2 l/m N 0,00 h 0 W/m 21,2 km/h (4 Bft)
13.04.2016 00:00 8,9 C 93 % 1008,6 hPa 0,0 l/m N-NO 0,00 h 0 W/m 14,6 km/h (3 Bft)
13.04.2016 01:00 8,7 C 93 % 1008,7 hPa 0,0 l/m N 0,00 h 0 W/m 3,1 km/h (1 Bft)
13.04.2016 02:00 8,5 C 94 % 1008,9 hPa 0,2 l/m N 0,00 h 0 W/m 0,0 km/h (0 Bft)
13.04.2016 03:00 8,3 C 96 % 1008,3 hPa 0,0 l/m SO 0,00 h 0 W/m 1,7 km/h (1 Bft)
13.04.2016 04:00 8,2 C 96 % 1007,6 hPa 0,0 l/m S 0,00 h 0 W/m 7,1 km/h (2 Bft)
13.04.2016 05:00 8,3 C 94 % 1007,2 hPa 0,0 l/m S 0,00 h 0 W/m 6,8 km/h (2 Bft)
13.04.2016 06:00 8,2 C 94 % 1007,1 hPa 0,0 l/m N 0,00 h 6 W/m 0,9 km/h (0 Bft)
13.04.2016 07:00 7,9 C 95 % 1006,8 hPa 0,0 l/m N 0,00 h 26 W/m 0,4 km/h (0 Bft)
13.04.2016 08:00 9,0 C 93 % 1006,4 hPa 0,0 l/m SW 0,58 h 192 W/m 2,7 km/h (1 Bft)
13.04.2016 09:00 11,1 C 83 % 1005,7 hPa 0,0 l/m S-SW 1,00 h 387 W/m 7,4 km/h (2 Bft)
13.04.2016 10:00 13,2 C 70 % 1005,0 hPa 0,0 l/m S 0,58 h 398 W/m 5,5 km/h (1 Bft)
13.04.2016 11:00 14,3 C 63 % 1004,7 hPa 0,0 l/m W-NW 0,75 h 534 W/m 8,9 km/h (2 Bft)
13.04.2016 12:00 14,8 C 66 % 1005,0 hPa 0,0 l/m W 0,25 h 381 W/m 17,7 km/h (3 Bft)
13.04.2016 13:00 12,4 C 78 % 1005,4 hPa 0,4 l/m W 0,00 h 75 W/m 18,0 km/h (3 Bft)
13.04.2016 14:00 11,5 C 86 % 1005,7 hPa 0,2 l/m W 0,00 h 115 W/m 15,4 km/h (3 Bft)
13.04.2016 15:00 10,2 C 89 % 1006,2 hPa 0,6 l/m W-SW 0,00 h 63 W/m 21,0 km/h (4 Bft)
13.04.2016 16:00 9,9 C 91 % 1006,3 hPa 0,0 l/m W-SW 0,00 h 93 W/m 25,1 km/h (4 Bft)
13.04.2016 17:00 9,8 C 89 % 1006,4 hPa 0,0 l/m W-SW 0,00 h 111 W/m 18,1 km/h (3 Bft)
13.04.2016 18:00 10,0 C 87 % 1006,3 hPa 0,0 l/m W-SW 0,42 h 148 W/m 23,3 km/h (4 Bft)
13.04.2016 19:00 9,6 C 87 % 1006,7 hPa 0,0 l/m W-SW 0,00 h 24 W/m 14,4 km/h (3 Bft)
13.04.2016 20:00 8,6 C 90 % 1006,9 hPa 0,6 l/m W-SW 0,00 h 0 W/m 14,6 km/h (3 Bft)
13.04.2016 21:00 7,9 C 90 % 1007,4 hPa 0,0 l/m SW 0,00 h 0 W/m 13,3 km/h (3 Bft)
13.04.2016 22:00 7,9 C 91 % 1007,5 hPa 0,0 l/m SW 0,00 h 0 W/m 10,1 km/h (2 Bft)
13.04.2016 23:00 7,7 C 92 % 1007,8 hPa 0,0 l/m W 0,00 h 0 W/m 9,8 km/h (2 Bft)
14.04.2016 00:00 7,4 C 91 % 1008,3 hPa 0,0 l/m W 0,00 h 0 W/m 16,1 km/h (3 Bft)
14.04.2016 01:00 7,3 C 91 % 1008,6 hPa 0,0 l/m W 0,00 h 0 W/m 13,5 km/h (3 Bft)
14.04.2016 02:00 7,1 C 93 % 1008,7 hPa 0,0 l/m W-SW 0,00 h 0 W/m 3,3 km/h (1 Bft)
14.04.2016 03:00 7,1 C 93 % 1009,1 hPa 0,0 l/m W-SW 0,00 h 0 W/m 8,2 km/h (2 Bft)
14.04.2016 04:00 6,9 C 94 % 1009,5 hPa 1,2 l/m W 0,00 h 0 W/m 15,7 km/h (3 Bft)
14.04.2016 05:00 6,5 C 95 % 1009,6 hPa 0,8 l/m W-NW 0,00 h 0 W/m 8,2 km/h (2 Bft)
14.04.2016 06:00 6,5 C 96 % 1010,0 hPa 0,0 l/m W 0,00 h 6 W/m 0,0 km/h (0 Bft)
14.04.2016 07:00 6,6 C 97 % 1010,5 hPa 0,0 l/m W 0,00 h 45 W/m 8,4 km/h (2 Bft)
14.04.2016 08:00 7,3 C 97 % 1011,2 hPa 0,0 l/m W-SW 0,00 h 103 W/m 9,7 km/h (2 Bft)
14.04.2016 09:00 8,3 C 94 % 1011,9 hPa 0,0 l/m W-SW 0,08 h 97 W/m 11,4 km/h (2 Bft)
14.04.2016 10:00 7,6 C 93 % 1012,4 hPa 0,8 l/m W 0,00 h 59 W/m 12,2 km/h (2 Bft)
14.04.2016 11:00 7,5 C 94 % 1012,9 hPa 0,6 l/m SW 0,00 h 180 W/m 11,0 km/h (2 Bft)
14.04.2016 12:00 9,7 C 90 % 1012,8 hPa 0,0 l/m W 0,25 h 364 W/m 11,3 km/h (2 Bft)
14.04.2016 13:00 9,4 C 89 % 1012,8 hPa 1,6 l/m S-SW 0,00 h 97 W/m 11,7 km/h (2 Bft)
14.04.2016 14:00 7,7 C 94 % 1013,0 hPa 2,6 l/m N 0,00 h 77 W/m 1,1 km/h (0 Bft)
14.04.2016 15:00 7,6 C 94 % 1013,0 hPa 5,8 l/m W-NW 0,00 h 36 W/m 9,3 km/h (2 Bft)
14.04.2016 16:00 7,9 C 95 % 1012,4 hPa 1,6 l/m NW 0,08 h 159 W/m 8,6 km/h (2 Bft)
14.04.2016 17:00 9,3 C 92 % 1012,2 hPa 0,2 l/m S-SW 0,17 h 129 W/m 4,0 km/h (1 Bft)
14.04.2016 18:00 9,5 C 91 % 1012,3 hPa 0,0 l/m N 0,00 h 66 W/m 0,0 km/h (0 Bft)
14.04.2016 19:00 9,2 C 93 % 1012,1 hPa 0,0 l/m S-SW 0,00 h 35 W/m 0,4 km/h (0 Bft)
14.04.2016 20:00 7,4 C 97 % 1011,7 hPa 0,0 l/m N 0,08 h 5 W/m 0,0 km/h (0 Bft)
14.04.2016 21:00 6,3 C 98 % 1011,5 hPa 0,0 l/m N 0,00 h 0 W/m 0,0 km/h (0 Bft)
14.04.2016 22:00 5,8 C 98 % 1011,3 hPa 0,0 l/m N 0,00 h 0 W/m 0,0 km/h (0 Bft)
14.04.2016 23:00 5,5 C 99 % 1010,8 hPa 0,0 l/m N 0,00 h 0 W/m 0,0 km/h (0 Bft)
15.04.2016 00:00 5,0 C 99 % 1010,5 hPa 0,0 l/m N 0,00 h 0 W/m 0,0 km/h (0 Bft)
15.04.2016 01:00 4,9 C 99 % 1010,2 hPa 0,0 l/m N 0,00 h 0 W/m 0,0 km/h (0 Bft)
15.04.2016 02:00 5,0 C 99 % 1009,7 hPa 0,0 l/m N 0,00 h 0 W/m 0,0 km/h (0 Bft)
15.04.2016 03:00 5,3 C 99 % 1009,2 hPa 0,0 l/m N 0,00 h 0 W/m 0,0 km/h (0 Bft)
15.04.2016 04:00 5,4 C 99 % 1008,7 hPa 0,0 l/m N 0,00 h 0 W/m 0,0 km/h (0 Bft)
15.04.2016 05:00 5,4 C 99 % 1008,1 hPa 0,0 l/m N 0,00 h 0 W/m 0,0 km/h (0 Bft)
15.04.2016 06:00 5,5 C 99 % 1007,4 hPa 0,0 l/m N 0,00 h 5 W/m 0,0 km/h (0 Bft)
15.04.2016 07:00 5,8 C 99 % 1007,6 hPa 0,0 l/m N 0,00 h 13 W/m 0,0 km/h (0 Bft)
15.04.2016 08:00 6,2 C 99 % 1008,1 hPa 1,0 l/m N 0,00 h 12 W/m 0,0 km/h (0 Bft)
15.04.2016 09:00 7,4 C 99 % 1008,5 hPa 0,6 l/m W-NW 0,00 h 37 W/m 13,8 km/h (3 Bft)
15.04.2016 10:00 8,0 C 96 % 1008,7 hPa 1,4 l/m W 0,00 h 42 W/m 18,8 km/h (3 Bft)
15.04.2016 11:00 8,5 C 94 % 1009,4 hPa 1,4 l/m W-SW 0,00 h 39 W/m 24,4 km/h (4 Bft)
15.04.2016 12:00 8,5 C 96 % 1009,3 hPa 0,2 l/m SW 0,00 h 62 W/m 14,6 km/h (3 Bft)
15.04.2016 13:00 8,9 C 96 % 1009,2 hPa 0,2 l/m SW 0,00 h 68 W/m 11,4 km/h (2 Bft)
15.04.2016 14:00 9,2 C 96 % 1009,1 hPa 0,0 l/m SW 0,00 h 64 W/m 12,8 km/h (3 Bft)
15.04.2016 15:00 9,5 C 97 % 1008,9 hPa 0,0 l/m S-SW 0,00 h 115 W/m 12,4 km/h (3 Bft)
15.04.2016 16:00 10,2 C 93 % 1008,4 hPa 0,0 l/m SW 0,00 h 86 W/m 11,7 km/h (2 Bft)
15.04.2016 17:00 10,4 C 90 % 1008,1 hPa 0,0 l/m SW 0,00 h 92 W/m 10,5 km/h (2 Bft)
15.04.2016 18:00 10,9 C 86 % 1007,5 hPa 0,0 l/m SW 0,08 h 103 W/m 9,5 km/h (2 Bft)
15.04.2016 19:00 10,7 C 85 % 1007,2 hPa 0,0 l/m SW 0,00 h 20 W/m 7,1 km/h (2 Bft)
15.04.2016 20:00 9,8 C 87 % 1007,0 hPa 0,2 l/m SW 0,00 h 0 W/m 8,9 km/h (2 Bft)
15.04.2016 21:00 9,1 C 94 % 1007,1 hPa 1,0 l/m SW 0,00 h 0 W/m 10,4 km/h (2 Bft)
15.04.2016 22:00 9,3 C 94 % 1006,6 hPa 1,0 l/m W 0,00 h 0 W/m 16,4 km/h (3 Bft)
15.04.2016 23:00 9,0 C 95 % 1006,8 hPa 0,4 l/m N 0,00 h 0 W/m 14,5 km/h (3 Bft)
16.04.2016 00:00 8,6 C 97 % 1006,4 hPa 0,6 l/m N 0,00 h 0 W/m 14,5 km/h (3 Bft)
16.04.2016 01:00 8,5 C 98 % 1005,9 hPa 0,6 l/m N 0,00 h 0 W/m 14,5 km/h (3 Bft)
16.04.2016 02:00 8,3 C 99 % 1005,4 hPa 0,6 l/m N 0,00 h 0 W/m 14,5 km/h (3 Bft)
16.04.2016 03:00 8,4 C 99 % 1005,3 hPa 1,8 l/m N 0,00 h 0 W/m 14,5 km/h (3 Bft)
16.04.2016 04:00 7,9 C 99 % 1004,5 hPa 0,0 l/m N 0,00 h 0 W/m 14,5 km/h (3 Bft)
16.04.2016 05:00 7,7 C 99 % 1003,8 hPa 0,0 l/m N 0,00 h 0 W/m 14,5 km/h (3 Bft)
16.04.2016 06:00 7,2 C 99 % 1003,4 hPa 0,0 l/m N 0,00 h 10 W/m 14,5 km/h (3 Bft)
16.04.2016 07:00 7,0 C 100 % 1003,7 hPa 0,0 l/m W-SW 0,08 h 43 W/m 2,3 km/h (1 Bft)
16.04.2016 08:00 8,2 C 100 % 1004,1 hPa 0,0 l/m W-SW 0,00 h 56 W/m 4,5 km/h (1 Bft)
16.04.2016 09:00 9,0 C 100 % 1004,8 hPa 0,2 l/m W-SW 0,00 h 76 W/m 9,3 km/h (2 Bft)
16.04.2016 10:00 9,3 C 99 % 1005,5 hPa 0,6 l/m W-SW 0,00 h 70 W/m 22,7 km/h (4 Bft)
16.04.2016 11:00 9,7 C 96 % 1006,1 hPa 0,2 l/m W-SW 0,00 h 146 W/m 29,3 km/h (5 Bft)
16.04.2016 12:00 11,2 C 93 % 1006,0 hPa 0,0 l/m SW 0,00 h 280 W/m 29,1 km/h (5 Bft)
16.04.2016 13:00 12,1 C 88 % 1005,4 hPa 0,0 l/m SW 0,25 h 449 W/m 23,9 km/h (4 Bft)
16.04.2016 14:00 14,7 C 79 % 1005,1 hPa 0,0 l/m SW 1,00 h 821 W/m 23,2 km/h (4 Bft)
16.04.2016 15:00 16,0 C 68 % 1005,1 hPa 0,0 l/m W-SW 0,67 h 626 W/m 29,4 km/h (5 Bft)
16.04.2016 16:00 14,7 C 73 % 1005,2 hPa 0,0 l/m W-NW 0,08 h 253 W/m 16,0 km/h (3 Bft)
16.04.2016 17:00 13,2 C 79 % 1005,0 hPa 0,2 l/m NW 0,00 h 79 W/m 10,2 km/h (2 Bft)
16.04.2016 18:00 12,4 C 87 % 1004,5 hPa 0,4 l/m W-NW 0,17 h 81 W/m 2,3 km/h (1 Bft)
16.04.2016 19:00 11,8 C 92 % 1004,6 hPa 0,0 l/m NW 0,00 h 18 W/m 1,5 km/h (1 Bft)
16.04.2016 20:00 10,7 C 95 % 1004,4 hPa 0,0 l/m N-NO 0,00 h 6 W/m 0,7 km/h (0 Bft)
16.04.2016 21:00 10,2 C 97 % 1004,3 hPa 0,2 l/m N 0,00 h 0 W/m 0,0 km/h (0 Bft)
16.04.2016 22:00 9,4 C 97 % 1003,2 hPa 0,0 l/m N 0,00 h 0 W/m 0,0 km/h (0 Bft)
16.04.2016 23:00 8,6 C 98 % 1002,6 hPa 0,0 l/m N 0,00 h 0 W/m 0,0 km/h (0 Bft)
17.04.2016 00:00 8,3 C 99 % 1002,4 hPa 0,0 l/m N 0,00 h 0 W/m 0,0 km/h (0 Bft)
17.04.2016 01:00 8,5 C 98 % 1002,3 hPa 0,0 l/m N 0,00 h 0 W/m 0,0 km/h (0 Bft)
17.04.2016 02:00 9,2 C 98 % 1003,3 hPa 0,2 l/m N 0,00 h 0 W/m 0,0 km/h (0 Bft)
17.04.2016 03:00 9,4 C 96 % 1003,7 hPa 0,6 l/m N 0,00 h 0 W/m 0,0 km/h (0 Bft)
17.04.2016 04:00 9,3 C 96 % 1004,4 hPa 1,0 l/m N 0,00 h 0 W/m 0,0 km/h (0 Bft)
17.04.2016 05:00 8,8 C 97 % 1004,2 hPa 1,0 l/m N 0,00 h 0 W/m 0,0 km/h (0 Bft)
17.04.2016 06:00 8,5 C 97 % 1004,3 hPa 0,0 l/m N 0,00 h 0 W/m 0,0 km/h (0 Bft)
17.04.2016 07:00 8,5 C 98 % 1004,5 hPa 0,0 l/m N 0,00 h 18 W/m 0,0 km/h (0 Bft)
17.04.2016 08:00 8,7 C 99 % 1004,5 hPa 0,0 l/m N 0,00 h 35 W/m 0,0 km/h (0 Bft)
17.04.2016 09:00 9,5 C 98 % 1005,0 hPa 0,0 l/m N 0,00 h 84 W/m 0,0 km/h (0 Bft)
17.04.2016 10:00 10,4 C 96 % 1005,8 hPa 0,0 l/m N 0,00 h 85 W/m 0,0 km/h (0 Bft)
17.04.2016 11:00 9,6 C 91 % 1006,9 hPa 0,0 l/m N 0,25 h 280 W/m 0,0 km/h (0 Bft)
17.04.2016 12:00 10,3 C 85 % 1007,7 hPa 0,0 l/m N 0,08 h 306 W/m 0,0 km/h (0 Bft)
17.04.2016 13:00 10,6 C 83 % 1008,4 hPa 0,0 l/m N 0,00 h 175 W/m 0,0 km/h (0 Bft)
17.04.2016 14:00 9,8 C 85 % 1008,7 hPa 0,0 l/m N 0,00 h 127 W/m 0,0 km/h (0 Bft)
17.04.2016 15:00 9,1 C 87 % 1008,7 hPa 0,2 l/m N-NO 0,00 h 139 W/m 2,8 km/h (1 Bft)
17.04.2016 16:00 7,8 C 91 % 1009,6 hPa 1,4 l/m N-NO 0,00 h 41 W/m 7,8 km/h (2 Bft)
17.04.2016 17:00 7,4 C 94 % 1010,3 hPa 0,8 l/m N 0,00 h 52 W/m 8,3 km/h (2 Bft)
17.04.2016 18:00 7,1 C 95 % 1010,7 hPa 1,0 l/m N 0,00 h 24 W/m 4,1 km/h (1 Bft)
17.04.2016 19:00 6,8 C 96 % 1011,3 hPa 1,4 l/m N-NO 0,00 h 7 W/m 6,7 km/h (2 Bft)
17.04.2016 20:00 6,1 C 96 % 1012,6 hPa 3,0 l/m N-NO 0,00 h 0 W/m 8,7 km/h (2 Bft)
17.04.2016 21:00 5,3 C 96 % 1013,5 hPa 0,8 l/m N-NO 0,00 h 0 W/m 7,2 km/h (2 Bft)
17.04.2016 22:00 5,1 C 96 % 1014,1 hPa 1,0 l/m NO 0,00 h 0 W/m 3,6 km/h (1 Bft)
17.04.2016 23:00 5,1 C 96 % 1014,8 hPa 0,4 l/m N 0,00 h 0 W/m 1,6 km/h (1 Bft)
Min-Datum _ 11.04.16 12.04.16 17.04.16 - - - - 11.04.16
_ Min-Zeit 06:40 17:45 01:45 - - - - 00:35
Minimum _ 2,3 C 41 % 1002,1 hPa - - - - 0,0 km/h (0 Bft)
Max-Datum _ 12.04.16 15.04.16 17.04.16 14.04.16 - 11.04.16 16.04.16 16.04.16
_ Max-Zeit 17:40 07:30 23:40 15:05 - 06:50 14:40 12:00
Maximum _ 18,6 C 100 % 1015,3 hPa 5,8 l/m - 0,08 h 926 W/m 40,2 km/h
SW (6 Bft)
Durchschnitt _ 9,3 C 88 % 1008,1 hPa #45,4 l/m W-SW #23:25 h 196 W/m 7,8 km/h (2 Bft)